This is the latest recevied weather packets stored in our database for station/object K9YK-13. If no packets are shown the sender has not sent any weather packets the latest 10 day(s).
| Time | Temp. | Humidity | Pressure | Rain* | Wind** | Luminosity | Snow |
|---|---|---|---|---|---|---|---|
| 1778084769 | 13.33° C | 66% | 0 hPa | 0 mm | - | - | - |
| 1778074569 | 11.11° C | 82% | 0 hPa | 0 mm | - | - | - |
| 1778070969 | 10° C | 87% | 0 hPa | 0 mm | - | - | - |
| 1778069769 | 8.89° C | 97% | 0 hPa | 0 mm | - | - | - |
| 1778069469 | 7.22° C | 98% | 0 hPa | 0 mm | - | - | - |
| 1778068869 | 6.67° C | 98% | 0 hPa | 0 mm | - | - | - |
| 1778063769 | 5° C | 98% | 0 hPa | 0 mm | - | - | - |
| 1778060169 | 6.11° C | 96% | 0 hPa | 0 mm | - | - | - |
| 1778059869 | 6.67° C | 96% | 0 hPa | 0 mm | - | - | - |
| 1778059569 | 7.22° C | 96% | 0 hPa | 0 mm | - | - | - |
| 1778058969 | 6.67° C | 97% | 0 hPa | 0 mm | - | - | - |
| 1778057769 | 6.67° C | 95% | 0 hPa | 0 mm | - | - | - |
| 1778056869 | 7.22° C | 95% | 0 hPa | 0 mm | - | - | - |
| 1778056569 | 7.22° C | 95% | 0 hPa | 0 mm | - | - | - |
| 1778056269 | 7.22° C | 95% | 0 hPa | 0 mm | - | - | - |
| 1778055969 | 7.22° C | 95% | 0 hPa | 0 mm | - | - | - |
| 1778055669 | 7.78° C | 95% | 0 hPa | 0 mm | - | - | - |
| 1778055369 | 7.78° C | 95% | 0 hPa | 0 mm | - | - | - |
| 1778055069 | 7.78° C | 96% | 0 hPa | 0 mm | - | - | - |
| 1778054769 | 7.78° C | 96% | 0 hPa | 0 mm | - | - | - |
| 1778054470 | 7.78° C | 97% | 0 hPa | 0 mm | - | - | - |
| 1778054169 | 7.78° C | 97% | 0 hPa | 0 mm | - | - | - |
| 1778053869 | 7.78° C | 96% | 0 hPa | 0 mm | - | - | - |
| 1778053269 | 7.78° C | 96% | 0 hPa | 0 mm | - | - | - |
| 1778052969 | 7.78° C | 96% | 0 hPa | 0 mm | - | - | - |
* Rain latest hour (hover to see other rain measurements)
** Current wind speed in m/s (hover to see current wind gust speed)